Time;durP1;ratioP1;P1;durP2;ratioP2;P2;SDS_P1;SDS_P2;PMS_P1;PMS_P2;Temp;Humidity;BMP_temperature;BMP_pressure;BME280_temperature;BME280_humidity;BME280_pressure;Samples;Min_cycle;Max_cycle;Signal;HPM_P1;HPM_P2
2021/05/08 00:00:43;;;;;;;3.20;1.27;;;;;;;17.23;48.81;94244.06;2968544;39;20063;-68
2021/05/08 00:02:44;;;;;;;7.50;1.90;;;;;;;17.20;48.90;94245.28;2967735;39;20068;-70
2021/05/08 00:04:46;;;;;;;4.70;1.38;;;;;;;17.20;48.87;94249.75;2968650;39;20140;-70
2021/05/08 00:06:47;;;;;;;4.68;1.52;;;;;;;17.35;48.46;94241.53;2968628;39;20501;-70
2021/05/08 00:08:48;;;;;;;4.95;1.17;;;;;;;17.34;48.49;94245.22;2966500;39;20092;-70
2021/05/08 00:10:50;;;;;;;4.60;1.35;;;;;;;17.44;48.34;94245.56;2967190;40;20147;-71
2021/05/08 00:12:51;;;;;;;3.20;1.65;;;;;;;17.61;47.63;94241.38;2968698;39;20612;-70
2021/05/08 00:14:53;;;;;;;4.68;1.70;;;;;;;17.72;47.24;94247.03;2971134;39;20060;-70
2021/05/08 00:16:54;;;;;;;4.70;1.30;;;;;;;17.73;47.09;94253.97;2971475;39;20065;-70
2021/05/08 00:18:56;;;;;;;6.35;1.40;;;;;;;17.80;46.97;94249.41;2970175;39;20396;-70
2021/05/08 00:20:57;;;;;;;2.63;1.45;;;;;;;17.66;47.43;94269.06;2970117;39;20057;-69
2021/05/08 00:22:59;;;;;;;5.47;1.42;;;;;;;17.30;48.36;94278.44;2969312;39;20064;-70
2021/05/08 00:25:00;;;;;;;3.03;1.38;;;;;;;16.97;49.15;94287.31;2970387;39;20618;-70
2021/05/08 00:27:01;;;;;;;2.75;1.40;;;;;;;16.47;49.88;94298.34;2969300;39;20123;-71
2021/05/08 00:29:03;;;;;;;2.25;1.35;;;;;;;16.08;50.17;94291.28;2967163;39;20504;-69
2021/05/08 00:31:04;;;;;;;5.72;1.50;;;;;;;15.94;49.64;94293.91;2965975;40;20048;-71
2021/05/08 00:33:05;;;;;;;3.13;1.40;;;;;;;16.10;48.81;94299.81;2968107;39;20052;-70
2021/05/08 00:35:07;;;;;;;3.72;1.58;;;;;;;16.12;47.76;94311.00;2970167;39;20079;-70
2021/05/08 00:37:09;;;;;;;5.40;1.75;;;;;;;16.03;47.98;94317.50;2970652;39;20071;-69
2021/05/08 00:39:10;;;;;;;3.55;1.65;;;;;;;15.79;48.57;94317.06;2967545;39;20063;-70
2021/05/08 00:41:11;;;;;;;5.20;2.28;;;;;;;15.80;48.63;94321.31;2966910;40;20060;-71
2021/05/08 00:43:15;;;;;;;4.07;1.90;;;;;;;15.92;48.75;94325.00;2971508;39;20040;-69
2021/05/08 00:45:16;;;;;;;5.57;2.25;;;;;;;15.93;50.32;94328.44;2966955;39;20048;-72
2021/05/08 00:47:20;;;;;;;5.53;2.50;;;;;;;15.90;51.34;94339.41;2973664;39;20056;-81
2021/05/08 00:49:22;;;;;;;3.55;2.33;;;;;;;15.29;53.60;94353.41;2974919;39;20060;-80
2021/05/08 00:51:24;;;;;;;6.60;3.28;;;;;;;15.37;54.59;94350.59;2970539;39;20060;-82
2021/05/08 00:53:25;;;;;;;6.88;3.38;;;;;;;15.31;55.15;94357.47;2972159;39;20091;-80
2021/05/08 00:55:27;;;;;;;4.72;3.45;;;;;;;15.08;56.94;94357.78;2969931;39;20052;-82
2021/05/08 00:57:33;;;;;;;6.22;3.90;;;;;;;14.60;59.13;94383.22;2968928;40;20429;-84
2021/05/08 00:59:35;;;;;;;7.07;4.32;;;;;;;14.55;59.50;94386.44;2973360;39;20132;-81
2021/05/08 01:01:36;;;;;;;9.05;5.30;;;;;;;14.09;61.17;94392.91;2975590;39;20076;-81
2021/05/08 01:03:37;;;;;;;7.28;5.38;;;;;;;13.97;62.07;94414.66;2972571;39;20401;-83
2021/05/08 01:05:39;;;;;;;6.53;5.13;;;;;;;13.70;62.93;94412.56;2971154;39;20063;-70
2021/05/08 01:07:40;;;;;;;12.48;5.85;;;;;;;13.72;62.99;94425.50;2969348;39;20419;-69
2021/05/08 01:09:42;;;;;;;9.38;5.90;;;;;;;13.60;64.01;94437.53;2967781;39;20060;-70
2021/05/08 01:11:43;;;;;;;6.82;5.55;;;;;;;13.85;63.04;94452.00;2972441;39;20152;-71
2021/05/08 01:13:44;;;;;;;10.15;5.95;;;;;;;14.07;62.30;94452.06;2972869;39;20373;-71
2021/05/08 01:15:46;;;;;;;7.45;5.93;;;;;;;14.21;61.65;94453.81;2968022;40;20111;-70
2021/05/08 01:17:47;;;;;;;9.00;6.65;;;;;;;14.42;61.34;94457.47;2971520;39;20041;-69
2021/05/08 01:19:49;;;;;;;8.43;5.85;;;;;;;14.53;60.75;94470.13;2964122;40;20048;-70
2021/05/08 01:21:50;;;;;;;9.82;6.45;;;;;;;14.56;60.85;94467.13;2969860;39;20068;-71
2021/05/08 01:23:51;;;;;;;10.02;6.35;;;;;;;14.61;60.41;94470.03;2967034;40;20074;-72
2021/05/08 01:25:53;;;;;;;9.50;6.75;;;;;;;14.60;60.79;94478.13;2970043;40;20044;-69
2021/05/08 01:27:56;;;;;;;8.82;7.25;;;;;;;14.26;61.95;94480.41;2971107;40;20079;-71
2021/05/08 01:29:57;;;;;;;;;;;;;;;14.36;61.93;94480.09;2970002;39;20048;-71
2021/05/08 01:31:59;;;;;;;10.00;7.55;;;;;;;14.52;61.40;94484.31;2966364;40;20268;-68
2021/05/08 01:34:02;;;;;;;9.85;7.78;;;;;;;14.59;60.83;94498.41;2971361;39;20132;-71
2021/05/08 01:36:04;;;;;;;9.90;7.82;;;;;;;14.61;60.69;94503.50;2974684;39;20393;-71
2021/05/08 01:38:06;;;;;;;12.25;7.97;;;;;;;14.53;61.21;94507.03;2974206;39;20088;-71
2021/05/08 01:40:12;;;;;;;9.23;7.85;;;;;;;14.59;60.80;94510.78;2972257;39;20448;-70
2021/05/08 01:42:13;;;;;;;12.20;8.00;;;;;;;14.45;61.13;94500.03;2970989;39;20458;-70
2021/05/08 01:44:14;;;;;;;9.77;7.72;;;;;;;14.44;60.68;94514.25;2970706;39;20380;-69
2021/05/08 01:46:16;;;;;;;9.25;8.18;;;;;;;14.42;60.64;94512.81;2967489;39;20318;-70
2021/05/08 01:48:17;;;;;;;8.90;7.07;;;;;;;14.44;60.38;94508.16;2970903;39;20498;-71
2021/05/08 01:50:24;;;;;;;11.15;7.80;;;;;;;14.47;60.15;94516.50;2970734;39;20060;-71
2021/05/08 01:52:26;;;;;;;11.20;7.07;;;;;;;14.32;60.33;94513.91;2967369;40;20047;-70
2021/05/08 01:54:27;;;;;;;8.70;7.35;;;;;;;14.39;60.66;94515.78;2961340;40;20049;-69
2021/05/08 01:56:30;;;;;;;10.32;7.85;;;;;;;14.39;60.72;94526.34;2967097;40;20086;-70
2021/05/08 01:58:34;;;;;;;10.30;7.57;;;;;;;14.36;60.99;94522.25;2967394;40;20168;-70
2021/05/08 02:00:37;;;;;;;7.85;7.03;;;;;;;14.37;60.81;94528.34;2968760;40;20071;-71
2021/05/08 02:02:39;;;;;;;8.63;6.63;;;;;;;14.45;60.17;94530.88;2971092;39;20056;-71
2021/05/08 02:04:40;;;;;;;8.00;6.63;;;;;;;14.32;60.47;94527.06;2969615;39;20529;-70
2021/05/08 02:06:48;;;;;;;8.40;6.70;;;;;;;14.19;60.19;94537.47;2966940;40;20060;-70
2021/05/08 02:08:49;;;;;;;10.43;6.80;;;;;;;13.87;61.79;94536.06;2967787;39;20060;-70
2021/05/08 02:10:50;;;;;;;7.57;6.07;;;;;;;13.93;61.12;94541.41;2959482;40;20064;-69
2021/05/08 02:12:52;;;;;;;9.45;6.18;;;;;;;14.04;60.33;94542.75;2968560;39;20094;-70
2021/05/08 02:14:53;;;;;;;7.30;5.45;;;;;;;13.83;60.41;94556.69;2968838;40;20060;-69
2021/05/08 02:16:54;;;;;;;6.88;5.10;;;;;;;13.84;60.32;94557.50;2966088;40;20092;-69
2021/05/08 02:18:55;;;;;;;7.72;4.93;;;;;;;13.76;60.07;94563.69;2969468;39;20512;-70
2021/05/08 02:20:56;;;;;;;6.72;4.95;;;;;;;13.76;60.01;94563.69;2970883;39;20404;-70
2021/05/08 02:23:01;;;;;;;8.35;5.00;;;;;;;13.92;59.12;94566.13;2966774;39;20064;-70
2021/05/08 02:25:04;;;;;;;6.28;4.53;;;;;;;14.00;59.15;94569.66;2970313;39;20453;-72
2021/05/08 02:27:05;;;;;;;5.90;4.50;;;;;;;13.75;59.18;94572.59;2968609;40;20084;-70
2021/05/08 02:29:06;;;;;;;7.82;4.45;;;;;;;13.64;59.28;94570.41;2971270;39;20122;-71
2021/05/08 02:31:08;;;;;;;5.45;4.10;;;;;;;13.61;59.37;94576.03;2967669;40;20076;-71
2021/05/08 02:33:10;;;;;;;4.95;3.38;;;;;;;13.39;59.18;94594.31;2966360;40;20055;-70
2021/05/08 02:35:12;;;;;;;6.80;3.75;;;;;;;13.01;59.66;94580.31;2967467;40;20044;-71
2021/05/08 02:37:13;;;;;;;6.22;4.05;;;;;;;13.14;59.50;94593.69;2974056;39;20088;-70
2021/05/08 02:39:14;;;;;;;4.90;3.25;;;;;;;13.04;59.60;94601.03;2968659;39;20114;-70
2021/05/08 02:41:16;;;;;;;7.18;3.28;;;;;;;12.27;61.11;94625.47;2971515;39;20056;-68
2021/05/08 02:43:18;;;;;;;4.43;3.42;;;;;;;12.38;61.21;94617.19;2974193;39;20118;-70
2021/05/08 02:45:19;;;;;;;3.75;3.33;;;;;;;12.45;61.04;94607.66;2969941;39;20078;-70
2021/05/08 02:47:21;;;;;;;4.97;3.50;;;;;;;12.38;60.79;94637.41;2968100;39;20051;-70
2021/05/08 02:49:22;;;;;;;4.45;3.22;;;;;;;12.30;61.10;94598.84;2967181;39;20056;-70
2021/05/08 02:51:24;;;;;;;7.72;3.80;;;;;;;12.40;60.91;94619.66;2973150;39;20085;-71
2021/05/08 02:53:26;;;;;;;3.85;3.30;;;;;;;12.30;60.83;94617.22;2966345;40;20489;-70
2021/05/08 02:55:27;;;;;;;3.47;3.17;;;;;;;12.27;61.04;94623.66;2965135;40;20075;-71
2021/05/08 02:57:28;;;;;;;3.75;3.28;;;;;;;12.26;60.79;94639.56;2972118;39;20071;-71
2021/05/08 02:59:29;;;;;;;4.47;3.40;;;;;;;12.26;60.85;94627.28;2971822;40;20056;-71
2021/05/08 03:01:30;;;;;;;3.47;3.17;;;;;;;12.06;61.63;94632.09;2966133;40;20504;-70
2021/05/08 03:03:32;;;;;;;3.88;3.47;;;;;;;12.09;61.34;94649.34;2967294;40;20052;-70
2021/05/08 03:05:33;;;;;;;3.28;2.85;;;;;;;11.86;61.61;94657.91;2966912;39;20116;-69
2021/05/08 03:07:35;;;;;;;3.55;3.15;;;;;;;11.88;62.37;94645.44;2968176;39;20056;-71
2021/05/08 03:09:36;;;;;;;3.35;2.70;;;;;;;12.00;61.93;94647.72;2972236;39;20067;-70
2021/05/08 03:11:37;;;;;;;3.20;2.60;;;;;;;12.10;61.30;94645.72;2968442;39;20118;-70
2021/05/08 03:13:39;;;;;;;4.45;2.63;;;;;;;12.04;60.92;94646.38;2974203;39;20075;-71
2021/05/08 03:15:40;;;;;;;3.55;2.50;;;;;;;12.01;61.32;94654.63;2971164;39;20060;-71
2021/05/08 03:17:41;;;;;;;2.55;1.95;;;;;;;11.93;61.08;94665.13;2965005;40;20401;-71
2021/05/08 03:19:42;;;;;;;4.20;2.50;;;;;;;11.99;61.22;94661.84;2968423;39;20067;-70
2021/05/08 03:21:44;;;;;;;4.25;2.40;;;;;;;12.09;61.28;94665.09;2968028;40;20072;-71
2021/05/08 03:23:45;;;;;;;2.80;2.10;;;;;;;12.03;60.92;94673.66;2966347;40;20101;-69
2021/05/08 03:25:46;;;;;;;3.05;2.10;;;;;;;11.95;61.04;94684.97;2967974;40;20157;-70
2021/05/08 03:27:47;;;;;;;4.75;2.00;;;;;;;11.93;61.31;94680.88;2971025;39;20074;-71
2021/05/08 03:29:49;;;;;;;2.63;1.83;;;;;;;11.81;61.57;94686.47;2969833;39;20056;-70
2021/05/08 03:31:50;;;;;;;2.25;1.90;;;;;;;11.83;61.22;94696.78;2973869;39;20051;-71
2021/05/08 03:33:51;;;;;;;3.33;2.25;;;;;;;11.54;62.36;94702.56;2968518;39;20060;-71
2021/05/08 03:35:53;;;;;;;3.60;1.65;;;;;;;11.69;62.23;94704.34;2974567;39;20060;-70
2021/05/08 03:37:54;;;;;;;2.33;1.88;;;;;;;11.85;61.79;94711.38;2969369;40;20159;-71
2021/05/08 03:39:55;;;;;;;3.20;1.67;;;;;;;11.90;61.43;94712.72;2973033;39;20103;-72
2021/05/08 03:41:56;;;;;;;2.40;1.70;;;;;;;11.81;61.62;94722.41;2972233;39;20440;-69
2021/05/08 03:43:57;;;;;;;2.38;1.65;;;;;;;11.82;62.11;94724.00;2968029;40;20152;-70
2021/05/08 03:45:59;;;;;;;2.40;1.90;;;;;;;11.74;62.05;94727.47;2971295;39;20048;-71
2021/05/08 03:48:00;;;;;;;2.70;1.90;;;;;;;11.71;61.88;94734.84;2972527;39;20103;-70
2021/05/08 03:50:02;;;;;;;6.65;2.15;;;;;;;11.71;62.07;94733.03;2970482;39;20076;-69
2021/05/08 03:52:04;;;;;;;2.65;2.17;;;;;;;11.64;62.32;94746.00;2970183;39;20069;-70
2021/05/08 03:54:05;;;;;;;3.42;2.40;;;;;;;11.55;62.40;94748.78;2967259;39;20092;-70
2021/05/08 03:56:06;;;;;;;4.72;2.88;;;;;;;11.51;62.94;94748.31;2965838;40;20149;-70
2021/05/08 03:58:08;;;;;;;3.00;2.40;;;;;;;11.41;63.14;94748.44;2968544;40;20073;-81
2021/05/08 04:00:10;;;;;;;3.60;2.70;;;;;;;11.42;63.30;94746.66;2973579;39;20131;-81
2021/05/08 04:02:11;;;;;;;4.60;3.10;;;;;;;10.95;64.57;94753.31;2972031;39;20394;-82
2021/05/08 04:04:12;;;;;;;3.78;3.15;;;;;;;10.91;64.91;94762.47;2976952;39;20092;-80
2021/05/08 04:06:13;;;;;;;6.47;4.03;;;;;;;10.73;66.07;94774.84;2975876;39;20056;-83
2021/05/08 04:08:15;;;;;;;4.30;3.65;;;;;;;10.85;65.37;94755.22;2971794;39;20263;-82
2021/05/08 04:10:18;;;;;;;5.72;4.30;;;;;;;10.98;64.85;94767.88;2975194;40;20048;-80
2021/05/08 04:12:19;;;;;;;4.18;3.47;;;;;;;11.16;63.97;94759.88;2976751;39;20056;-81
2021/05/08 04:14:20;;;;;;;4.13;3.15;;;;;;;11.13;63.40;94768.91;2974954;39;20183;-70
2021/05/08 04:16:21;;;;;;;3.92;3.35;;;;;;;11.32;62.73;94767.78;2966840;40;20156;-70
2021/05/08 04:18:23;;;;;;;3.60;3.10;;;;;;;11.26;62.36;94784.16;2971005;40;20068;-71
2021/05/08 04:20:24;;;;;;;3.42;3.10;;;;;;;11.41;61.73;94776.50;2967727;40;20070;-70
2021/05/08 04:22:26;;;;;;;3.50;3.00;;;;;;;11.48;61.40;94783.53;2966013;40;20060;-71
2021/05/08 04:24:27;;;;;;;4.03;3.55;;;;;;;11.59;61.16;94785.03;2966290;40;20163;-71
2021/05/08 04:26:28;;;;;;;3.85;3.13;;;;;;;11.66;60.86;94788.66;2967496;40;20051;-68
2021/05/08 04:28:36;;;;;;;3.58;2.83;;;;;;;11.74;60.26;94787.81;2973211;39;20444;-70
2021/05/08 04:30:38;;;;;;;3.30;2.90;;;;;;;11.79;60.29;94785.53;2972998;39;20048;-70
2021/05/08 04:32:54;;;;;;;3.45;2.92;;;;;;;11.78;59.98;94786.50;2967507;39;20059;-71
2021/05/08 04:34:56;;;;;;;4.03;2.88;;;;;;;11.77;59.53;94784.88;2967289;40;20305;-71
2021/05/08 04:36:57;;;;;;;4.00;2.53;;;;;;;11.84;59.38;94785.03;2969122;39;20048;-70
2021/05/08 04:38:58;;;;;;;3.80;3.03;;;;;;;11.85;59.67;94791.91;2966335;40;20063;-69
2021/05/08 04:40:59;;;;;;;3.00;2.47;;;;;;;11.92;59.29;94789.50;2969415;39;20387;-71
2021/05/08 04:43:01;;;;;;;3.35;2.55;;;;;;;11.97;58.61;94798.50;2973404;39;20085;-70
2021/05/08 04:45:04;;;;;;;3.47;2.38;;;;;;;11.89;58.93;94801.13;2973501;39;20056;-70
2021/05/08 04:47:05;;;;;;;3.03;2.60;;;;;;;11.97;58.87;94798.50;2974207;39;20135;-71
2021/05/08 04:49:07;;;;;;;3.35;2.55;;;;;;;12.05;58.66;94795.88;2974312;39;20128;-70
2021/05/08 04:51:08;;;;;;;2.67;2.13;;;;;;;12.11;58.21;94802.28;2969271;40;20146;-71
2021/05/08 04:53:09;;;;;;;3.38;2.17;;;;;;;11.93;58.02;94806.88;2970348;39;20083;-70
2021/05/08 04:55:10;;;;;;;2.70;1.90;;;;;;;12.05;58.13;94805.56;2976254;39;20185;-70
2021/05/08 04:57:12;;;;;;;2.50;2.20;;;;;;;12.31;57.25;94801.94;2975558;39;20087;-70
2021/05/08 04:59:14;;;;;;;2.72;2.00;;;;;;;12.33;56.82;94806.03;2969441;39;20597;-73
2021/05/08 05:01:15;;;;;;;2.38;1.90;;;;;;;12.13;57.17;94823.97;2968385;40;20132;-70
2021/05/08 05:03:16;;;;;;;2.28;1.90;;;;;;;12.21;57.31;94828.38;2970999;39;20049;-72
2021/05/08 05:05:18;;;;;;;2.30;1.80;;;;;;;12.19;56.89;94820.66;2976018;39;20289;-71
2021/05/08 05:07:19;;;;;;;1.98;1.70;;;;;;;12.01;57.50;94830.53;2963119;40;20322;-70
2021/05/08 05:09:23;;;;;;;2.22;1.80;;;;;;;12.01;57.82;94830.53;2973245;39;20051;-71
2021/05/08 05:11:25;;;;;;;2.10;1.80;;;;;;;12.07;57.59;94832.50;2971299;40;20092;-70
2021/05/08 05:13:27;;;;;;;2.58;2.13;;;;;;;12.20;57.57;94837.25;2975678;39;20136;-71
2021/05/08 05:15:29;;;;;;;2.30;1.95;;;;;;;12.40;56.62;94835.09;2975329;39;20329;-71
2021/05/08 05:17:31;;;;;;;2.28;1.65;;;;;;;12.29;56.38;94825.75;2969360;40;20405;-71
2021/05/08 05:19:34;;;;;;;2.15;1.65;;;;;;;12.17;56.83;94840.19;2969440;40;20109;-72
2021/05/08 05:21:35;;;;;;;2.13;1.63;;;;;;;12.01;57.13;94830.53;2972609;39;20397;-70
2021/05/08 05:23:37;;;;;;;2.10;1.60;;;;;;;11.80;57.38;94836.22;2974258;39;20065;-70
2021/05/08 05:25:39;;;;;;;1.90;1.40;;;;;;;11.64;58.26;94842.28;2973292;39;20133;-70
2021/05/08 05:27:40;;;;;;;1.88;1.35;;;;;;;11.53;58.41;94834.69;2971705;39;20059;-70
2021/05/08 05:29:41;;;;;;;2.30;1.67;;;;;;;11.58;58.30;94832.44;2972282;39;20111;-71
2021/05/08 05:31:43;;;;;;;3.97;1.42;;;;;;;11.62;57.83;94831.13;2967910;40;20076;-71
2021/05/08 05:33:47;;;;;;;2.50;1.70;;;;;;;11.61;58.34;94830.28;2970762;39;20133;-72
2021/05/08 05:35:50;;;;;;;1.90;1.23;;;;;;;11.26;58.81;94847.09;2976648;39;20068;-71
2021/05/08 05:37:58;;;;;;;3.88;1.60;;;;;;;11.27;58.83;94853.97;2969911;39;20060;-70
2021/05/08 05:39:59;;;;;;;2.00;1.50;;;;;;;11.48;57.97;94854.38;2970596;39;20088;-72
2021/05/08 05:42:00;;;;;;;1.88;1.40;;;;;;;11.48;58.74;94845.69;2973893;39;20048;-71
2021/05/08 05:44:02;;;;;;;3.53;1.55;;;;;;;11.34;58.78;94862.88;2976679;39;20363;-81
2021/05/08 05:46:03;;;;;;;2.03;1.52;;;;;;;11.11;59.43;94854.75;2976038;39;20072;-83
2021/05/08 05:48:06;;;;;;;1.75;1.33;;;;;;;11.10;59.31;94868.88;2972220;39;20047;-81
2021/05/08 05:50:08;;;;;;;4.03;1.30;;;;;;;11.22;58.53;94866.75;2975863;39;20104;-83
2021/05/08 05:52:10;;;;;;;2.58;1.50;;;;;;;11.10;58.79;94870.63;2976380;40;20070;-82
2021/05/08 05:54:12;;;;;;;2.60;1.40;;;;;;;11.19;58.59;94881.00;2973733;39;20056;-82
2021/05/08 05:56:13;;;;;;;1.83;1.45;;;;;;;11.21;59.00;94865.13;2975833;39;20092;-83
2021/05/08 05:58:14;;;;;;;3.22;1.55;;;;;;;11.21;58.93;94873.00;2974471;39;20088;-81
2021/05/08 06:00:16;;;;;;;2.00;1.70;;;;;;;11.32;58.84;94875.31;2973683;39;20059;-82
2021/05/08 06:02:18;;;;;;;2.92;1.98;;;;;;;11.21;59.31;94881.69;2969392;39;20055;-83
2021/05/08 06:04:19;;;;;;;4.57;2.40;;;;;;;10.91;60.61;94893.50;2975342;39;20268;-82
2021/05/08 06:06:20;;;;;;;3.13;2.58;;;;;;;10.58;61.91;94890.72;2965802;40;20451;-83
2021/05/08 06:08:21;;;;;;;2.33;2.08;;;;;;;10.35;62.55;94886.97;2972946;40;20139;-84
2021/05/08 06:10:23;;;;;;;4.57;2.13;;;;;;;10.68;61.97;94884.53;2977762;39;20132;-83
2021/05/08 06:12:25;;;;;;;4.32;2.13;;;;;;;10.79;61.65;94882.47;2977794;39;20056;-83
2021/05/08 06:14:27;;;;;;;2.25;1.83;;;;;;;11.09;61.12;94895.22;2973183;39;20083;-84
2021/05/08 06:16:28;;;;;;;6.47;2.17;;;;;;;10.92;61.16;94905.63;2976252;40;20084;-83
2021/05/08 06:18:30;;;;;;;4.43;2.35;;;;;;;10.70;62.16;94904.38;2974488;40;20056;-81
2021/05/08 06:20:31;;;;;;;3.75;1.90;;;;;;;11.04;60.82;94911.44;2976202;39;20067;-82
2021/05/08 06:22:33;;;;;;;1.95;1.52;;;;;;;11.45;59.27;94919.47;2975913;39;20051;-85
2021/05/08 06:24:34;;;;;;;2.33;1.58;;;;;;;11.43;58.56;94916.19;2969783;39;20056;-83
2021/05/08 06:26:36;;;;;;;2.67;1.67;;;;;;;11.51;57.87;94928.47;2976043;39;20329;-84
2021/05/08 06:28:37;;;;;;;2.78;1.70;;;;;;;11.91;57.31;94927.81;2970048;40;20448;-86
2021/05/08 06:30:40;;;;;;;1.80;1.30;;;;;;;12.23;55.60;94921.75;2976623;39;20059;-84
2021/05/08 06:32:41;;;;;;;3.85;1.23;;;;;;;12.09;55.15;94927.69;2972940;40;20048;-82
2021/05/08 06:34:42;;;;;;;2.38;1.20;;;;;;;12.13;55.31;94915.88;2977275;39;20055;-83
2021/05/08 06:36:45;;;;;;;2.13;1.48;;;;;;;12.28;55.01;94911.59;2971931;39;20056;-83
2021/05/08 06:38:46;;;;;;;5.13;1.95;;;;;;;12.11;55.32;94902.09;2977687;39;20055;-82
2021/05/08 06:40:47;;;;;;;2.67;1.70;;;;;;;12.18;55.08;94908.31;2975859;39;20071;-86
2021/05/08 06:42:49;;;;;;;2.38;1.55;;;;;;;11.91;55.61;94903.38;2974128;39;20399;-81
2021/05/08 06:44:50;;;;;;;4.45;1.70;;;;;;;12.05;55.45;94903.53;2969152;39;20063;-82
2021/05/08 06:46:55;;;;;;;3.65;2.03;;;;;;;12.26;55.18;94908.31;2969394;40;20140;-84
2021/05/08 06:48:56;;;;;;;3.22;1.75;;;;;;;12.31;55.36;94902.56;2967683;40;20342;-81
2021/05/08 06:50:58;;;;;;;3.50;1.90;;;;;;;12.27;55.43;94907.31;2975161;39;20051;-82
2021/05/08 06:52:59;;;;;;;2.00;1.48;;;;;;;12.11;55.59;94909.97;2974956;39;20091;-83
2021/05/08 06:55:00;;;;;;;2.40;1.63;;;;;;;12.17;55.60;94903.22;2974106;40;20063;-82
2021/05/08 06:57:01;;;;;;;2.20;1.75;;;;;;;12.12;55.74;94914.22;2976022;39;20058;-83
2021/05/08 06:59:03;;;;;;;4.05;2.28;;;;;;;12.14;55.30;94909.63;2976134;39;20060;-82
2021/05/08 07:01:04;;;;;;;15.80;2.80;;;;;;;12.19;55.18;94909.13;2972190;40;20092;-86
2021/05/08 07:03:05;;;;;;;5.55;2.55;;;;;;;11.90;56.34;94910.44;2978970;39;20145;-82
2021/05/08 07:05:07;;;;;;;3.60;2.47;;;;;;;11.76;56.74;94909.19;2977399;39;20245;-83
2021/05/08 07:07:08;;;;;;;3.53;2.20;;;;;;;11.75;56.44;94902.31;2975216;39;20071;-83
2021/05/08 07:09:10;;;;;;;3.42;2.58;;;;;;;11.75;56.54;94918.06;2971550;39;20052;-82
2021/05/08 07:11:11;;;;;;;4.32;2.30;;;;;;;11.86;56.60;94916.94;2974481;39;20148;-81
2021/05/08 07:13:13;;;;;;;6.20;2.65;;;;;;;11.90;56.94;94920.94;2972182;39;20160;-83
2021/05/08 07:15:29;;;;;;;4.25;2.80;;;;;;;12.02;56.09;94926.66;2973628;39;20409;-84
2021/05/08 07:17:30;;;;;;;2.95;2.35;;;;;;;11.96;55.87;94927.31;2971254;39;20186;-84
2021/05/08 07:19:33;;;;;;;5.93;2.90;;;;;;;12.01;56.04;94932.91;2971404;39;20068;-82
2021/05/08 07:21:36;;;;;;;4.07;3.13;;;;;;;11.66;56.79;94947.91;2978296;39;20362;-83
2021/05/08 07:23:37;;;;;;;3.65;2.78;;;;;;;11.76;56.26;94938.06;2969204;40;20085;-83
2021/05/08 07:25:38;;;;;;;3.47;2.63;;;;;;;11.73;56.32;94938.41;2969802;40;20073;-82
2021/05/08 07:27:40;;;;;;;3.60;2.60;;;;;;;11.62;56.22;94936.91;2970341;40;20381;-83
2021/05/08 07:29:41;;;;;;;4.15;2.70;;;;;;;11.74;56.39;94934.78;2969857;40;20056;-83
2021/05/08 07:31:42;;;;;;;5.70;3.58;;;;;;;11.71;56.43;94935.13;2967514;40;20318;-83
2021/05/08 07:33:44;;;;;;;3.80;3.15;;;;;;;11.88;56.47;94939.47;2970333;40;20060;-83
2021/05/08 07:35:46;;;;;;;5.13;3.72;;;;;;;11.60;57.25;94932.81;2977229;39;20056;-83
2021/05/08 07:37:47;;;;;;;4.32;3.25;;;;;;;11.50;57.85;94932.91;2975285;39;20214;-83
2021/05/08 07:39:49;;;;;;;4.85;3.00;;;;;;;11.51;57.61;94938.97;2971432;39;20083;-84
2021/05/08 07:41:50;;;;;;;5.38;2.90;;;;;;;11.02;59.41;94939.59;2969820;39;20045;-84
2021/05/08 07:43:51;;;;;;;4.93;3.45;;;;;;;11.24;58.88;94933.81;2969012;39;20056;-81
2021/05/08 07:45:53;;;;;;;4.18;3.10;;;;;;;11.59;57.79;94931.16;2974246;39;20418;-82
2021/05/08 07:47:55;;;;;;;4.53;3.00;;;;;;;11.69;57.12;94927.41;2974726;39;20400;-81
2021/05/08 07:49:56;;;;;;;4.15;3.20;;;;;;;11.96;56.83;94937.81;2968667;40;20425;-82
2021/05/08 07:51:57;;;;;;;6.38;4.07;;;;;;;11.97;56.27;94939.47;2970998;40;20060;-82
2021/05/08 07:53:58;;;;;;;3.25;2.80;;;;;;;11.97;55.89;94947.34;2970275;40;20051;-84
2021/05/08 07:55:59;;;;;;;3.10;2.50;;;;;;;12.09;54.79;94943.44;2970738;39;20048;-82
2021/05/08 07:58:07;;;;;;;2.97;2.60;;;;;;;12.17;54.25;94922.41;2971655;39;20067;-84
2021/05/08 08:00:10;;;;;;;4.72;2.78;;;;;;;12.36;54.16;94928.34;2971668;40;20082;-83
2021/05/08 08:02:13;;;;;;;4.25;2.72;;;;;;;12.51;53.75;94937.22;2973380;39;20088;-84
2021/05/08 08:04:14;;;;;;;5.55;2.35;;;;;;;12.46;54.09;94921.94;2975094;39;20436;-85
2021/05/08 08:06:15;;;;;;;3.90;2.55;;;;;;;12.54;53.54;94931.63;2972507;39;20051;-84
2021/05/08 08:08:16;;;;;;;3.60;2.70;;;;;;;12.68;53.32;94917.81;2972415;40;20056;-85
2021/05/08 08:10:18;;;;;;;4.05;3.00;;;;;;;12.74;52.90;94931.28;2974707;39;20135;-84
2021/05/08 08:12:20;;;;;;;4.38;3.28;;;;;;;12.63;53.57;94930.63;2971331;40;20048;-84
2021/05/08 08:14:21;;;;;;;8.68;3.20;;;;;;;12.72;53.51;94933.25;2969077;40;20063;-84
2021/05/08 08:16:23;;;;;;;4.75;3.63;;;;;;;11.96;54.79;94950.94;2975685;39;20124;-82
2021/05/08 08:18:26;;;;;;;6.00;3.80;;;;;;;11.26;56.49;94939.72;2971179;39;20416;-84
2021/05/08 08:20:27;;;;;;;8.77;3.40;;;;;;;11.43;56.97;94948.47;2974291;39;20137;-86
2021/05/08 08:22:28;;;;;;;4.22;2.65;;;;;;;11.63;55.22;94953.47;2972073;40;20067;-82
2021/05/08 08:24:30;;;;;;;3.85;3.13;;;;;;;11.91;54.88;94958.50;2974353;39;20048;-83
2021/05/08 08:26:31;;;;;;;3.50;2.60;;;;;;;12.01;55.06;94948.69;2980502;39;20052;-83
2021/05/08 08:28:32;;;;;;;4.82;3.60;;;;;;;12.02;54.68;94947.69;2975004;39;20082;-84
2021/05/08 08:30:33;;;;;;;7.47;4.53;;;;;;;11.48;56.56;94940.94;2986217;39;20093;-82
2021/05/08 08:32:35;;;;;;;8.35;3.90;;;;;;;11.60;56.99;94954.59;2981943;39;20052;-81
2021/05/08 08:34:37;;;;;;;5.82;3.63;;;;;;;11.82;55.62;94955.00;2973277;39;20067;-83
2021/05/08 08:36:38;;;;;;;7.10;4.13;;;;;;;12.02;55.03;94952.94;2966720;40;20087;-85
2021/05/08 08:38:40;;;;;;;6.00;4.30;;;;;;;11.72;55.73;94947.25;2975593;39;20087;-84
2021/05/08 08:40:43;;;;;;;5.80;4.05;;;;;;;11.69;56.24;94956.28;2972918;39;20079;-83
2021/05/08 08:42:44;;;;;;;4.93;3.50;;;;;;;11.85;56.25;94958.13;2967463;40;20146;-83
2021/05/08 08:44:45;;;;;;;4.15;3.42;;;;;;;11.98;55.25;94959.47;2970973;40;20055;-83
2021/05/08 08:46:47;;;;;;;5.03;3.30;;;;;;;12.22;54.29;94969.22;2973218;39;20079;-83
2021/05/08 08:48:50;;;;;;;4.90;3.00;;;;;;;12.27;53.09;94961.66;2975596;39;20051;-83
2021/05/08 08:50:51;;;;;;;3.72;2.80;;;;;;;12.37;53.02;94954.47;2971513;39;20647;-83
2021/05/08 08:52:52;;;;;;;3.75;2.90;;;;;;;12.64;52.56;94953.28;2974739;40;20071;-83
2021/05/08 08:54:54;;;;;;;4.65;2.67;;;;;;;12.53;53.05;94953.63;2972473;39;20147;-84
2021/05/08 08:57:03;;;;;;;4.85;3.10;;;;;;;12.46;53.27;94958.72;2969966;40;20105;-84
2021/05/08 08:59:18;;;;;;;3.53;2.70;;;;;;;12.57;52.73;94949.69;2974593;39;20064;-73
2021/05/08 09:01:19;;;;;;;3.60;2.95;;;;;;;12.52;53.42;94945.91;2965512;40;20049;-71
2021/05/08 09:03:21;;;;;;;6.28;4.40;;;;;;;12.58;53.52;94963.66;2970888;39;20063;-71
2021/05/08 09:05:24;;;;;;;9.88;3.47;;;;;;;12.40;54.40;94950.69;2966377;40;20127;-70
2021/05/08 09:07:27;;;;;;;5.50;4.43;;;;;;;12.64;53.54;94948.03;2965616;40;20068;-72
2021/05/08 09:09:29;;;;;;;6.85;3.35;;;;;;;13.05;52.48;94934.81;2968547;39;20102;-70
2021/05/08 09:11:31;;;;;;;3.88;3.28;;;;;;;13.39;51.83;94931.13;2970406;40;20089;-71
2021/05/08 09:13:32;;;;;;;5.75;3.60;;;;;;;13.41;51.32;94937.03;2970257;39;20460;-71
2021/05/08 09:15:37;;;;;;;5.03;3.05;;;;;;;13.52;50.97;94928.78;2960713;40;20048;-71
2021/05/08 09:17:45;;;;;;;4.60;3.28;;;;;;;13.34;50.61;94949.25;2967495;39;20119;-71
2021/05/08 09:19:57;;;;;;;4.65;3.35;;;;;;;13.37;50.23;94934.94;2966076;40;20053;-70
2021/05/08 09:22:28;;;;;;;3.53;3.00;;;;;;;13.45;50.00;94935.72;2965224;40;20052;-72
2021/05/08 09:24:29;;;;;;;3.83;2.85;;;;;;;13.78;49.54;94937.38;2965166;40;20089;-71
2021/05/08 09:26:37;;;;;;;3.70;2.80;;;;;;;14.00;48.61;94935.75;2972020;39;20059;-71
2021/05/08 09:28:40;;;;;;;3.63;2.88;;;;;;;14.19;47.95;94921.31;2965934;39;20056;-71
2021/05/08 09:30:43;;;;;;;3.30;2.70;;;;;;;14.34;47.05;94915.09;2972960;39;20394;-71
2021/05/08 09:32:46;;;;;;;3.20;2.55;;;;;;;14.67;45.95;94914.88;2973437;39;20059;-71
2021/05/08 09:34:47;;;;;;;8.02;3.78;;;;;;;14.40;46.53;94921.47;2974880;39;20048;-72